Time;durP1;ratioP1;P1;durP2;ratioP2;P2;SDS_P1;SDS_P2;PMS_P1;PMS_P2;Temp;Humidity;BMP_temperature;BMP_pressure;BME280_temperature;BME280_humidity;BME280_pressure;Samples;Min_cycle;Max_cycle;Signal;HPM_P1;HPM_P2
2022/06/27 02:46:43;;;;;;;1.63;0.73;;;22.10;81.50;;;;;;5678544;23;89327;-86
2022/06/27 02:49:09;;;;;;;2.60;1.00;;;22.10;81.50;;;;;;4898488;28;87338;-87
2022/06/27 02:51:55;;;;;;;1.75;0.70;;;22.10;81.40;;;;;;4884712;28;87141;-86
2022/06/27 02:54:28;;;;;;;3.17;0.75;;;22.20;81.00;;;;;;4903572;28;88755;-87
2022/06/27 02:57:04;;;;;;;1.90;0.90;;;22.10;81.60;;;;;;4902127;28;87229;-86
2022/06/27 02:59:35;;;;;;;3.75;0.95;;;22.00;82.00;;;;;;4907793;28;86266;-86
2022/06/27 03:02:02;;;;;;;2.60;0.73;;;22.00;82.40;;;;;;4908834;28;86935;-86
2022/06/27 03:04:28;;;;;;;2.55;0.80;;;22.00;84.20;;;;;;4907821;28;87375;-85
2022/06/27 03:06:54;;;;;;;3.03;1.00;;;21.80;84.80;;;;;;4903193;28;88244;-86
2022/06/27 03:09:19;;;;;;;4.05;0.95;;;21.80;85.10;;;;;;4903212;28;87142;-86
2022/06/27 03:11:48;;;;;;;1.50;0.88;;;21.80;86.40;;;;;;4908499;28;87073;-86
2022/06/27 03:14:14;;;;;;;1.80;0.73;;;21.80;86.00;;;;;;4908174;28;86967;-85
2022/06/27 03:16:40;;;;;;;1.15;0.70;;;21.70;87.20;;;;;;4905723;28;87671;-86
2022/06/27 03:19:06;;;;;;;5.15;0.82;;;21.60;88.20;;;;;;4904777;28;87832;-86
2022/06/27 03:21:32;;;;;;;2.10;1.15;;;21.60;89.20;;;;;;4904014;28;88696;-85
2022/06/27 03:23:58;;;;;;;1.67;0.88;;;21.60;89.70;;;;;;4900848;28;86231;-84
2022/06/27 03:26:23;;;;;;;1.65;0.80;;;21.60;89.60;;;;;;4889478;28;87019;-85
2022/06/27 03:28:49;;;;;;;2.33;0.80;;;21.50;90.00;;;;;;4900057;28;87183;-85
2022/06/27 03:31:15;;;;;;;2.78;0.73;;;21.60;90.00;;;;;;4904765;28;87905;-85
2022/06/27 03:33:41;;;;;;;3.55;0.90;;;21.50;90.70;;;;;;4906360;28;87412;-85
2022/06/27 03:36:08;;;;;;;1.60;0.77;;;21.40;91.40;;;;;;4901901;28;87133;-84
2022/06/27 03:38:34;;;;;;;3.38;0.60;;;21.30;91.90;;;;;;4897491;28;87464;-84
2022/06/27 03:41:00;;;;;;;1.40;0.85;;;21.30;91.80;;;;;;4897770;28;87033;-84
2022/06/27 03:43:26;;;;;;;2.63;0.77;;;21.30;91.70;;;;;;4899713;28;86681;-85
2022/06/27 03:45:51;;;;;;;3.47;0.70;;;21.20;91.50;;;;;;4895783;28;87715;-84
2022/06/27 03:51:01;;;;;;;1.90;0.40;;;21.20;90.80;;;;;;4899353;28;87103;-86
2022/06/27 03:53:27;;;;;;;1.67;0.20;;;21.20;90.30;;;;;;4898203;28;87163;-84
2022/06/27 03:55:53;;;;;;;4.18;0.70;;;21.10;89.90;;;;;;4898229;28;87873;-84
2022/06/27 03:58:19;;;;;;;3.13;0.40;;;21.30;89.40;;;;;;4904012;28;88947;-85
2022/06/27 04:00:44;;;;;;;2.13;0.50;;;21.40;88.00;;;;;;4905872;28;86925;-84
2022/06/27 04:03:10;;;;;;;1.23;0.35;;;21.40;87.10;;;;;;4895602;28;86938;-85
2022/06/27 04:05:36;;;;;;;1.35;0.30;;;21.60;87.00;;;;;;4890813;28;88247;-85
2022/06/27 04:08:02;;;;;;;1.63;0.68;;;21.90;85.70;;;;;;4885978;28;90143;-85
2022/06/27 04:10:28;;;;;;;6.45;0.60;;;22.00;84.90;;;;;;4898418;28;87045;-85
2022/06/27 04:12:54;;;;;;;2.35;0.57;;;22.10;84.20;;;;;;4896079;28;86925;-86
2022/06/27 04:15:20;;;;;;;0.90;0.20;;;22.40;84.00;;;;;;4902933;28;88139;-86
2022/06/27 04:17:45;;;;;;;6.35;0.50;;;22.90;81.50;;;;;;4893650;28;88680;-85
2022/06/27 04:20:11;;;;;;;2.22;0.52;;;23.30;80.80;;;;;;4890093;28;87968;-85
2022/06/27 04:22:37;;;;;;;2.38;0.70;;;23.70;78.10;;;;;;4905780;28;86975;-85
2022/06/27 04:25:04;;;;;;;1.27;0.60;;;23.90;76.00;;;;;;4906847;28;88150;-86
2022/06/27 04:27:30;;;;;;;0.90;0.40;;;24.00;75.90;;;;;;4907220;28;88648;-85
2022/06/27 04:29:56;;;;;;;1.20;0.50;;;24.60;74.10;;;;;;4906066;28;86995;-85
2022/06/27 04:32:23;;;;;;;1.27;0.57;;;24.90;71.10;;;;;;4907316;28;87525;-85
2022/06/27 04:34:49;;;;;;;1.48;0.60;;;25.00;71.20;;;;;;4907677;28;88403;-85
2022/06/27 04:37:16;;;;;;;1.95;0.95;;;25.30;70.70;;;;;;4904142;28;89499;-85
2022/06/27 04:39:42;;;;;;;4.10;0.30;;;25.90;68.80;;;;;;4894800;28;86614;-85
2022/06/27 04:42:08;;;;;;;1.95;0.93;;;26.20;67.00;;;;;;4896758;28;87998;-85
2022/06/27 04:44:37;;;;;;;3.15;0.90;;;26.20;66.80;;;;;;4887393;28;88649;-85
2022/06/27 04:47:13;;;;;;;1.88;0.60;;;26.50;66.40;;;;;;4898835;28;89060;-85
2022/06/27 04:49:39;;;;;;;;;;;26.80;65.50;;;;;;4903365;28;86951;-85
2022/06/27 04:52:08;;;;;;;1.08;0.50;;;27.20;64.20;;;;;;4889271;28;87082;-84
2022/06/27 04:54:38;;;;;;;3.38;1.00;;;27.40;63.00;;;;;;4894540;28;87357;-85
2022/06/27 04:57:05;;;;;;;1.55;0.40;;;27.10;63.70;;;;;;4905492;28;88205;-85
2022/06/27 04:59:31;;;;;;;1.15;0.88;;;27.10;64.50;;;;;;4905985;28;87144;-85
2022/06/27 05:01:57;;;;;;;2.90;0.95;;;27.40;63.50;;;;;;4894972;28;86221;-86
2022/06/27 05:04:23;;;;;;;2.45;1.13;;;27.90;63.30;;;;;;4903709;28;87521;-86
2022/06/27 05:06:50;;;;;;;1.50;0.77;;;28.30;61.80;;;;;;4903968;28;87028;-85
2022/06/27 05:09:16;;;;;;;1.60;0.85;;;28.60;61.10;;;;;;4906135;28;87980;-85
2022/06/27 05:11:45;;;;;;;2.63;1.35;;;29.40;59.00;;;;;;4902634;28;87060;-85
2022/06/27 05:14:11;;;;;;;2.55;0.57;;;29.70;58.20;;;;;;4906905;28;87404;-86
2022/06/27 05:16:38;;;;;;;1.65;1.02;;;30.10;57.60;;;;;;4899238;28;87520;-85
2022/06/27 05:19:03;;;;;;;1.83;1.27;;;30.40;57.00;;;;;;4907526;28;87046;-85
2022/06/27 05:21:29;;;;;;;1.98;1.45;;;30.90;55.90;;;;;;4906331;28;86546;-84
2022/06/27 05:23:55;;;;;;;3.80;1.23;;;31.00;55.50;;;;;;4906312;28;87192;-85
2022/06/27 05:26:21;;;;;;;2.65;1.08;;;31.00;54.80;;;;;;4905827;28;86513;-84
2022/06/27 05:28:46;;;;;;;5.07;1.52;;;31.10;54.80;;;;;;4906860;28;86934;-85
2022/06/27 05:31:12;;;;;;;1.90;1.65;;;31.90;54.20;;;;;;4901611;28;87027;-85
2022/06/27 05:33:39;;;;;;;2.63;1.35;;;32.50;52.90;;;;;;4904133;28;88505;-85
2022/06/27 05:36:05;;;;;;;2.67;2.08;;;32.80;51.80;;;;;;4904611;28;89448;-84
2022/06/27 05:38:31;;;;;;;4.45;1.58;;;33.00;51.30;;;;;;4903612;28;86893;-83
2022/06/27 05:40:58;;;;;;;1.85;1.65;;;33.40;51.20;;;;;;4905078;28;86672;-84
2022/06/27 05:43:24;;;;;;;0.95;0.60;;;33.50;50.20;;;;;;4904861;28;88169;-84
2022/06/27 05:45:49;;;;;;;1.20;0.65;;;32.90;51.50;;;;;;4901469;28;87321;-84
2022/06/27 05:48:16;;;;;;;3.65;1.70;;;32.80;52.10;;;;;;4902948;28;86962;-84
2022/06/27 05:50:41;;;;;;;2.53;2.10;;;33.50;51.10;;;;;;4902390;28;86220;-84
2022/06/27 05:53:07;;;;;;;3.53;1.70;;;33.90;49.70;;;;;;4904327;28;87122;-83
2022/06/27 05:55:33;;;;;;;3.60;2.00;;;34.10;50.10;;;;;;4903180;28;86731;-83
2022/06/27 05:58:00;;;;;;;2.63;2.42;;;33.20;50.40;;;;;;4903217;28;87930;-84
2022/06/27 06:00:28;;;;;;;3.65;1.67;;;32.80;51.80;;;;;;4904591;28;87017;-84
2022/06/27 06:02:55;;;;;;;3.55;2.15;;;33.70;50.50;;;;;;4895937;28;86675;-84
2022/06/27 06:05:21;;;;;;;2.47;1.70;;;33.90;49.60;;;;;;4903275;28;86955;-84
2022/06/27 06:07:48;;;;;;;3.07;1.77;;;33.50;50.90;;;;;;4904695;28;87441;-84
2022/06/27 06:10:14;;;;;;;3.95;2.38;;;34.00;49.60;;;;;;4904765;28;87096;-84
2022/06/27 06:12:40;;;;;;;2.55;2.03;;;34.70;49.10;;;;;;4906934;28;87819;-85
2022/06/27 06:15:08;;;;;;;3.95;2.33;;;34.40;48.50;;;;;;4906446;28;88232;-84
2022/06/27 06:17:36;;;;;;;2.92;2.45;;;35.10;47.50;;;;;;4907016;28;88751;-84
2022/06/27 06:20:05;;;;;;;2.67;2.47;;;35.00;48.40;;;;;;4907311;28;86834;-85
2022/06/27 06:22:31;;;;;;;3.08;1.80;;;35.10;48.00;;;;;;4904009;28;88374;-85
2022/06/27 06:24:56;;;;;;;1.95;1.85;;;35.40;47.50;;;;;;4906016;28;87114;-84
2022/06/27 06:27:22;;;;;;;2.85;2.05;;;36.10;46.40;;;;;;4911844;28;86849;-84
2022/06/27 06:29:49;;;;;;;4.35;2.65;;;35.90;46.20;;;;;;4909964;28;87033;-84
2022/06/27 06:32:15;;;;;;;2.95;2.53;;;35.10;47.50;;;;;;4906550;28;87218;-84
2022/06/27 06:34:41;;;;;;;3.28;2.42;;;35.70;47.30;;;;;;4897321;28;87344;-84
2022/06/27 06:37:09;;;;;;;2.53;2.10;;;37.20;45.30;;;;;;4903161;28;87017;-84
2022/06/27 06:39:37;;;;;;;2.88;2.22;;;36.40;46.10;;;;;;4905180;28;88218;-84
2022/06/27 06:42:04;;;;;;;2.65;2.20;;;37.40;45.00;;;;;;4903179;28;87721;-84
2022/06/27 06:44:31;;;;;;;4.20;2.45;;;37.50;43.70;;;;;;4895033;28;86900;-84
2022/06/27 06:46:57;;;;;;;3.05;2.25;;;37.00;45.50;;;;;;4904270;28;90051;-85
2022/06/27 06:49:23;;;;;;;2.95;2.08;;;37.50;44.30;;;;;;4903524;28;87347;-85
2022/06/27 06:51:50;;;;;;;3.53;2.17;;;37.80;44.20;;;;;;4904527;28;87193;-84
2022/06/27 06:54:17;;;;;;;5.38;2.67;;;37.50;44.50;;;;;;4904594;28;87105;-84
2022/06/27 06:56:46;;;;;;;2.72;2.45;;;36.60;45.50;;;;;;4905166;28;87270;-85
2022/06/27 06:59:12;;;;;;;3.50;2.10;;;36.70;46.00;;;;;;4904520;28;86932;-85
2022/06/27 07:01:39;;;;;;;3.08;1.33;;;37.90;44.00;;;;;;4905031;28;86988;-84
2022/06/27 07:04:05;;;;;;;2.72;2.45;;;38.40;43.70;;;;;;4904668;28;88791;-84
2022/06/27 07:06:32;;;;;;;3.85;2.67;;;38.60;43.10;;;;;;4904880;28;86616;-85
2022/06/27 07:08:59;;;;;;;3.75;2.38;;;38.30;43.50;;;;;;4904750;28;87068;-85
2022/06/27 07:11:27;;;;;;;2.58;1.25;;;38.00;44.20;;;;;;4903441;28;89653;-85
2022/06/27 07:13:55;;;;;;;3.38;2.53;;;39.20;43.10;;;;;;4905368;28;88761;-85
2022/06/27 07:16:21;;;;;;;3.47;2.95;;;40.60;42.20;;;;;;4905125;28;87051;-85
2022/06/27 07:18:48;;;;;;;3.97;3.47;;;40.10;41.20;;;;;;4904812;28;86909;-84
2022/06/27 07:21:21;;;;;;;4.30;3.90;;;40.80;40.60;;;;;;4904503;28;87182;-85
2022/06/27 07:23:48;;;;;;;4.57;3.70;;;41.30;40.50;;;;;;4905764;28;87052;-85
2022/06/27 07:26:17;;;;;;;5.72;3.15;;;39.80;41.40;;;;;;4903740;28;87053;-85
2022/06/27 07:28:43;;;;;;;4.35;3.25;;;38.30;44.10;;;;;;4906225;28;88177;-84
2022/06/27 07:31:11;;;;;;;4.38;3.08;;;38.00;44.10;;;;;;4905622;28;86948;-84
2022/06/27 07:33:42;;;;;;;4.78;3.20;;;38.90;43.70;;;;;;4904769;28;88090;-85
2022/06/27 07:36:14;;;;;;;3.72;2.67;;;40.00;42.30;;;;;;4901297;28;87570;-84
2022/06/27 07:38:46;;;;;;;4.18;3.60;;;40.20;41.70;;;;;;4902059;28;86935;-85
2022/06/27 07:41:14;;;;;;;2.70;2.45;;;39.70;42.70;;;;;;4901843;28;88345;-85
2022/06/27 07:43:40;;;;;;;4.35;3.53;;;38.40;43.50;;;;;;4902614;28;87484;-84
2022/06/27 07:46:06;;;;;;;3.90;3.28;;;38.50;43.50;;;;;;4901035;28;87108;-85
2022/06/27 07:48:33;;;;;;;5.18;3.03;;;39.30;42.30;;;;;;4902529;28;86986;-84
2022/06/27 07:50:58;;;;;;;4.57;3.38;;;39.80;42.30;;;;;;4901536;28;87482;-84
2022/06/27 07:53:25;;;;;;;5.45;4.25;;;39.10;42.60;;;;;;4899723;28;87569;-84
2022/06/27 07:55:56;;;;;;;3.75;3.40;;;38.50;43.50;;;;;;4902364;28;87055;-84
2022/06/27 07:58:30;;;;;;;4.15;3.75;;;39.60;42.00;;;;;;4905324;28;86884;-84
2022/06/27 08:00:58;;;;;;;4.47;4.07;;;40.20;42.10;;;;;;4904373;28;87877;-84
2022/06/27 08:03:39;;;;;;;;;;;40.10;41.80;;;;;;4895169;28;88700;-84
2022/06/27 08:06:11;;;;;;;4.82;4.43;;;41.20;40.10;;;;;;4906483;28;87412;-84
2022/06/27 08:08:39;;;;;;;4.30;3.60;;;39.50;42.10;;;;;;4904827;28;87024;-85
2022/06/27 08:11:08;;;;;;;5.30;4.07;;;40.40;41.00;;;;;;4905293;28;87217;-84
2022/06/27 08:13:35;;;;;;;3.92;3.55;;;41.40;40.80;;;;;;4904279;28;86901;-84
2022/06/27 08:16:02;;;;;;;4.15;3.75;;;41.10;40.80;;;;;;4905157;28;86870;-84
2022/06/27 08:18:31;;;;;;;5.30;4.80;;;40.80;41.10;;;;;;4905166;28;86175;-84
2022/06/27 08:21:00;;;;;;;3.67;2.30;;;40.90;40.20;;;;;;4904062;28;87205;-84
2022/06/27 08:23:27;;;;;;;5.05;4.35;;;41.10;41.10;;;;;;4904265;28;87401;-85
2022/06/27 08:25:54;;;;;;;5.85;5.35;;;42.30;40.10;;;;;;4904506;28;88858;-85
2022/06/27 08:28:21;;;;;;;4.97;4.30;;;43.30;39.00;;;;;;4904254;28;87046;-85
2022/06/27 08:30:47;;;;;;;5.05;4.57;;;44.30;37.40;;;;;;4904245;28;88117;-84
2022/06/27 08:33:13;;;;;;;5.50;5.00;;;43.80;38.60;;;;;;4890302;28;87565;-85
2022/06/27 08:35:47;;;;;;;5.78;5.28;;;42.40;39.20;;;;;;4901595;28;87499;-84
2022/06/27 08:38:20;;;;;;;7.22;4.93;;;42.90;38.80;;;;;;4897364;28;87032;-83
2022/06/27 08:40:47;;;;;;;5.05;4.60;;;44.30;38.50;;;;;;4904891;28;87724;-83
2022/06/27 08:43:14;;;;;;;2.83;2.58;;;45.20;36.40;;;;;;4906013;28;87104;-83
2022/06/27 08:45:41;;;;;;;6.30;5.70;;;45.30;36.90;;;;;;4904011;28;87156;-82
2022/06/27 08:48:11;;;;;;;7.65;5.13;;;45.40;36.10;;;;;;4905305;28;87040;-83
2022/06/27 08:50:37;;;;;;;4.97;4.57;;;45.10;36.90;;;;;;4904914;28;88108;-82
2022/06/27 08:53:04;;;;;;;6.53;6.03;;;45.10;36.60;;;;;;4904922;28;88234;-83
2022/06/27 08:55:33;;;;;;;5.80;5.00;;;45.60;36.80;;;;;;4905725;28;86964;-82
2022/06/27 08:58:04;;;;;;;7.35;6.75;;;46.10;36.50;;;;;;4906509;28;86919;-83
2022/06/27 09:00:32;;;;;;;6.32;5.75;;;45.00;36.80;;;;;;4905453;28;87241;-82
2022/06/27 09:02:58;;;;;;;7.20;6.60;;;44.60;37.30;;;;;;4895845;28;87622;-82
2022/06/27 09:05:27;;;;;;;6.63;5.93;;;44.80;36.70;;;;;;4905752;28;87251;-82
2022/06/27 09:07:55;;;;;;;7.35;6.75;;;45.40;36.40;;;;;;4903780;28;86265;-82
2022/06/27 09:10:27;;;;;;;6.60;6.00;;;46.60;35.10;;;;;;4904766;28;87346;-82
2022/06/27 09:13:07;;;;;;;5.97;5.47;;;46.70;35.40;;;;;;4904359;28;87499;-83
2022/06/27 09:15:47;;;;;;;7.30;6.25;;;47.70;33.40;;;;;;4901452;28;87988;-83
2022/06/27 09:18:23;;;;;;;4.90;4.45;;;45.80;36.20;;;;;;4902294;28;86813;-83
2022/06/27 09:21:09;;;;;;;7.45;6.85;;;45.80;36.00;;;;;;4898757;28;87020;-83
2022/06/27 09:23:53;;;;;;;7.50;5.70;;;45.80;35.50;;;;;;4902559;28;88402;-83
2022/06/27 09:26:21;;;;;;;5.68;5.18;;;45.50;35.50;;;;;;4901071;28;87203;-83
2022/06/27 09:28:50;;;;;;;5.53;5.10;;;45.80;35.90;;;;;;4902935;28;87070;-83
2022/06/27 09:31:28;;;;;;;6.85;6.32;;;45.80;35.20;;;;;;4903579;28;90269;-83
2022/06/27 09:34:16;;;;;;;7.18;6.57;;;45.40;35.50;;;;;;4904386;28;88981;-83
2022/06/27 09:36:50;;;;;;;7.20;6.50;;;45.40;35.30;;;;;;4911586;28;86945;-82
2022/06/27 09:39:29;;;;;;;8.18;5.85;;;43.00;37.70;;;;;;4901900;28;87003;-83
2022/06/27 09:42:01;;;;;;;5.45;5.05;;;42.90;38.80;;;;;;4901363;28;88658;-84
2022/06/27 09:44:28;;;;;;;6.88;6.28;;;43.80;37.70;;;;;;4908455;28;87983;-84
2022/06/27 09:47:01;;;;;;;7.35;5.22;;;44.30;37.70;;;;;;4915897;28;86986;-84
2022/06/27 09:49:31;;;;;;;6.18;5.68;;;45.00;36.60;;;;;;4904467;28;87295;-84
2022/06/27 09:51:57;;;;;;;6.45;5.90;;;45.00;35.90;;;;;;4916007;28;88560;-84
2022/06/27 09:54:24;;;;;;;3.53;2.22;;;44.80;36.10;;;;;;4907775;28;90108;-83
2022/06/27 09:56:51;;;;;;;6.18;5.20;;;43.50;38.00;;;;;;4908264;28;87350;-84
2022/06/27 09:59:18;;;;;;;4.95;4.55;;;43.40;38.40;;;;;;4905212;28;86889;-84
2022/06/27 10:01:44;;;;;;;4.82;4.43;;;44.50;37.40;;;;;;4908486;28;87224;-84
2022/06/27 10:04:10;;;;;;;4.95;4.55;;;44.20;36.20;;;;;;4916308;28;88462;-84
2022/06/27 10:06:40;;;;;;;7.72;5.28;;;43.50;37.00;;;;;;4902223;28;87948;-84
2022/06/27 10:09:08;;;;;;;5.28;4.78;;;42.80;37.70;;;;;;4898736;28;87125;-83
2022/06/27 10:11:36;;;;;;;4.95;4.55;;;41.30;39.20;;;;;;4901374;28;87619;-84
2022/06/27 10:14:22;;;;;;;2.58;2.38;;;39.10;42.70;;;;;;4894978;28;87874;-84
2022/06/27 10:16:59;;;;;;;5.63;4.35;;;37.50;44.70;;;;;;4902657;28;86630;-84
2022/06/27 10:19:26;;;;;;;3.72;3.38;;;34.90;49.50;;;;;;4904374;28;86985;-84
2022/06/27 10:21:53;;;;;;;6.00;3.83;;;34.60;49.50;;;;;;4904100;28;87220;-84
2022/06/27 10:24:19;;;;;;;4.25;3.17;;;33.90;53.40;;;;;;4904497;28;88486;-83
2022/06/27 10:26:46;;;;;;;3.65;2.97;;;33.30;53.20;;;;;;4899568;28;87330;-83
2022/06/27 10:29:30;;;;;;;4.55;3.33;;;32.50;54.40;;;;;;4904043;28;87058;-84
2022/06/27 10:31:57;;;;;;;4.88;2.63;;;31.90;56.10;;;;;;4902029;28;88625;-83
2022/06/27 10:34:38;;;;;;;3.80;2.97;;;31.90;56.20;;;;;;4900659;28;87965;-84
2022/06/27 10:37:24;;;;;;;5.13;1.20;;;31.60;55.20;;;;;;4909638;28;86993;-84
2022/06/27 10:39:50;;;;;;;2.60;2.40;;;31.30;57.30;;;;;;4907996;28;86958;-83
2022/06/27 10:42:44;;;;;;;3.00;2.63;;;30.80;59.70;;;;;;4901467;28;88248;-83
2022/06/27 10:45:23;;;;;;;3.08;2.50;;;30.50;58.90;;;;;;4901529;28;87393;-83
2022/06/27 10:48:02;;;;;;;3.65;2.05;;;30.70;58.60;;;;;;4902453;28;86995;-83
2022/06/27 10:50:40;;;;;;;2.58;1.75;;;30.70;57.90;;;;;;4902893;28;86447;-83
2022/06/27 10:53:25;;;;;;;4.63;2.08;;;30.50;57.80;;;;;;4906066;28;87831;-84
2022/06/27 10:55:52;;;;;;;2.00;0.80;;;30.00;57.90;;;;;;4900387;28;87693;-83
2022/06/27 10:58:23;;;;;;;3.35;1.88;;;29.70;58.70;;;;;;4900531;28;87864;-83
2022/06/27 11:00:49;;;;;;;2.83;1.98;;;30.40;57.90;;;;;;4901931;28;88688;-83
2022/06/27 11:03:24;;;;;;;5.53;2.22;;;30.80;56.90;;;;;;4905194;28;87286;-83
2022/06/27 11:06:00;;;;;;;2.53;1.90;;;31.00;56.80;;;;;;4905819;28;87454;-83
2022/06/27 11:08:26;;;;;;;3.95;1.85;;;30.60;57.00;;;;;;4901610;28;87351;-83
2022/06/27 11:10:52;;;;;;;2.58;1.60;;;29.80;58.20;;;;;;4903577;28;86991;-83
2022/06/27 11:13:43;;;;;;;3.70;1.73;;;29.80;58.20;;;;;;4903509;28;87217;-83
2022/06/27 11:16:20;;;;;;;5.60;1.90;;;30.50;57.10;;;;;;4903476;28;88172;-83
2022/06/27 11:18:59;;;;;;;3.40;2.05;;;30.60;55.80;;;;;;4898488;28;87123;-83
2022/06/27 11:21:27;;;;;;;5.38;1.88;;;30.90;56.00;;;;;;4902190;28;87117;-83
2022/06/27 11:24:05;;;;;;;7.00;1.98;;;30.40;56.60;;;;;;4901857;28;88233;-83
2022/06/27 11:26:36;;;;;;;2.95;1.50;;;30.60;56.30;;;;;;4900870;28;88833;-83
2022/06/27 11:31:58;;;;;;;2.30;1.85;;;30.40;57.40;;;;;;4906045;28;86957;-83
2022/06/27 11:34:25;;;;;;;4.57;2.55;;;30.10;57.30;;;;;;4898083;28;87649;-83
2022/06/27 11:36:56;;;;;;;4.32;1.88;;;29.90;57.40;;;;;;4907148;28;87951;-83
2022/06/27 11:39:32;;;;;;;4.95;1.60;;;30.20;56.80;;;;;;4907576;28;87054;-83
2022/06/27 11:42:00;;;;;;;3.38;2.13;;;30.20;56.60;;;;;;4907794;28;85997;-83
2022/06/27 11:44:26;;;;;;;3.63;1.70;;;30.50;56.40;;;;;;4907229;28;87359;-83
2022/06/27 11:47:01;;;;;;;1.40;0.95;;;30.60;55.20;;;;;;4905819;28;87676;-83
2022/06/27 11:49:34;;;;;;;2.80;1.60;;;31.00;55.60;;;;;;4906772;28;87820;-83
2022/06/27 11:52:11;;;;;;;5.47;1.80;;;31.00;54.60;;;;;;4907532;28;86863;-83
2022/06/27 11:54:45;;;;;;;6.22;1.95;;;31.20;55.10;;;;;;4907173;28;88680;-83
2022/06/27 11:57:25;;;;;;;4.80;1.77;;;31.40;55.20;;;;;;4909814;28;86938;-83
2022/06/27 11:59:52;;;;;;;2.22;1.63;;;31.30;54.60;;;;;;4908598;28;86820;-83
2022/06/27 12:02:31;;;;;;;2.20;0.70;;;31.00;55.30;;;;;;4902232;28;86858;-83
2022/06/27 12:05:09;;;;;;;3.10;2.03;;;31.10;55.80;;;;;;4905568;28;87267;-83
2022/06/27 12:08:09;;;;;;;3.83;2.08;;;31.20;55.60;;;;;;4908527;28;87105;-83
2022/06/27 12:10:38;;;;;;;3.58;2.15;;;30.10;56.70;;;;;;4896997;28;86952;-83
2022/06/27 12:13:09;;;;;;;3.03;2.05;;;30.40;55.70;;;;;;4907844;28;86989;-83
2022/06/27 12:15:37;;;;;;;3.72;2.00;;;31.20;55.40;;;;;;4906113;28;88554;-83
2022/06/27 12:18:04;;;;;;;2.40;2.17;;;31.40;54.00;;;;;;4907995;28;87133;-83
2022/06/27 12:20:32;;;;;;;3.58;2.20;;;31.90;53.40;;;;;;4907516;28;87060;-83
2022/06/27 12:22:58;;;;;;;3.08;2.25;;;31.80;53.10;;;;;;4901485;28;87165;-83
2022/06/27 12:25:24;;;;;;;1.92;1.55;;;31.20;54.80;;;;;;4906760;28;86897;-83
2022/06/27 12:27:50;;;;;;;2.13;0.90;;;31.30;55.80;;;;;;4907496;28;87236;-83
2022/06/27 12:30:17;;;;;;;3.75;1.70;;;30.90;55.50;;;;;;4907245;28;86891;-83
2022/06/27 12:32:43;;;;;;;5.05;1.45;;;30.40;56.60;;;;;;4908443;28;86372;-83
2022/06/27 12:35:09;;;;;;;3.45;1.02;;;30.30;57.70;;;;;;4906383;28;88425;-83
2022/06/27 12:37:36;;;;;;;2.65;1.38;;;30.10;57.10;;;;;;4907191;28;87198;-83
2022/06/27 12:40:04;;;;;;;4.00;1.95;;;30.00;56.70;;;;;;4907499;28;88368;-83
2022/06/27 12:42:29;;;;;;;2.35;2.00;;;29.90;57.70;;;;;;4899753;28;86870;-83
2022/06/27 12:44:55;;;;;;;7.53;2.40;;;30.00;57.30;;;;;;4914491;28;87220;-83
2022/06/27 12:47:21;;;;;;;3.83;1.92;;;29.80;57.20;;;;;;4914794;28;86874;-83
2022/06/27 12:49:47;;;;;;;4.28;3.88;;;30.00;57.00;;;;;;4912641;28;87024;-83
2022/06/27 12:52:13;;;;;;;2.55;1.85;;;30.20;56.00;;;;;;4911175;28;87549;-82
2022/06/27 12:54:39;;;;;;;3.08;1.83;;;30.40;54.70;;;;;;4904502;28;87135;-83
2022/06/27 12:57:05;;;;;;;4.45;1.42;;;30.50;54.60;;;;;;4904449;28;86895;-83
2022/06/27 12:59:31;;;;;;;6.72;2.05;;;29.70;56.50;;;;;;4904853;28;87098;-82
2022/06/27 13:01:57;;;;;;;2.78;1.95;;;29.10;57.30;;;;;;4901346;28;87085;-82
2022/06/27 13:04:23;;;;;;;2.40;1.02;;;28.90;59.60;;;;;;4894559;28;88292;-82
2022/06/27 13:06:49;;;;;;;2.45;1.48;;;29.20;58.50;;;;;;4903220;28;88114;-83
2022/06/27 13:09:15;;;;;;;5.30;2.40;;;29.00;59.90;;;;;;4903561;28;87126;-82
2022/06/27 13:11:41;;;;;;;3.85;1.80;;;29.30;58.00;;;;;;4903667;28;87307;-83
2022/06/27 13:14:07;;;;;;;3.42;1.88;;;29.60;58.40;;;;;;4905540;28;90202;-83
2022/06/27 13:16:32;;;;;;;2.67;1.83;;;29.70;57.40;;;;;;4898589;28;86961;-83
2022/06/27 13:18:58;;;;;;;8.15;2.55;;;29.40;58.60;;;;;;4906293;28;87131;-83
2022/06/27 13:21:23;;;;;;;4.03;1.90;;;29.40;59.20;;;;;;4906810;28;86336;-83
2022/06/27 13:23:52;;;;;;;5.90;1.95;;;29.80;57.60;;;;;;4899712;28;87369;-83
2022/06/27 13:26:18;;;;;;;3.47;1.13;;;30.30;56.20;;;;;;4901069;28;88488;-83
2022/06/27 13:28:45;;;;;;;2.75;1.77;;;30.30;55.50;;;;;;4904953;28;87935;-83
2022/06/27 13:31:11;;;;;;;2.92;1.60;;;30.00;57.20;;;;;;4905672;28;87016;-83
2022/06/27 13:33:37;;;;;;;4.63;2.25;;;30.00;56.30;;;;;;4905397;28;87638;-83
2022/06/27 13:36:03;;;;;;;4.43;1.77;;;30.10;56.90;;;;;;4905878;28;87164;-83
2022/06/27 13:38:29;;;;;;;4.22;1.80;;;29.80;57.20;;;;;;4906132;28;86960;-83
2022/06/27 13:40:54;;;;;;;2.42;1.83;;;29.60;58.70;;;;;;4904932;28;87035;-83
2022/06/27 13:43:20;;;;;;;2.35;2.08;;;29.60;57.90;;;;;;4903611;28;88547;-83
2022/06/27 13:45:46;;;;;;;2.88;1.63;;;29.30;62.00;;;;;;4903542;28;87434;-83
2022/06/27 13:48:11;;;;;;;4.82;0.70;;;29.60;58.40;;;;;;4905494;28;87538;-83
2022/06/27 13:50:37;;;;;;;3.90;1.30;;;29.60;58.90;;;;;;4905482;28;87591;-83
2022/06/27 13:53:06;;;;;;;4.60;1.75;;;29.10;59.90;;;;;;4904941;28;88161;-83
2022/06/27 13:55:35;;;;;;;5.47;1.73;;;29.00;60.20;;;;;;4904537;28;87101;-82
2022/06/27 13:58:04;;;;;;;4.90;1.20;;;29.30;58.50;;;;;;4896039;28;86743;-82
2022/06/27 14:00:32;;;;;;;4.43;1.83;;;29.30;59.40;;;;;;4902395;28;86965;-82
2022/06/27 14:02:58;;;;;;;3.20;1.75;;;29.40;57.10;;;;;;4900550;28;90818;-83
2022/06/27 14:05:23;;;;;;;2.70;1.50;;;29.00;58.90;;;;;;4902522;28;87169;-82
2022/06/27 14:07:49;;;;;;;2.92;1.38;;;28.80;59.10;;;;;;4902986;28;87780;-83
2022/06/27 14:10:17;;;;;;;3.67;1.75;;;28.50;60.50;;;;;;4903314;28;86415;-82
2022/06/27 14:12:44;;;;;;;2.60;1.10;;;28.80;58.00;;;;;;4902546;28;86962;-83
2022/06/27 14:15:11;;;;;;;1.90;1.27;;;29.10;58.60;;;;;;4902780;28;89824;-83
2022/06/27 14:17:37;;;;;;;2.45;1.20;;;29.00;59.00;;;;;;4903137;28;87937;-82
2022/06/27 14:20:06;;;;;;;2.38;1.45;;;28.80;59.20;;;;;;4903003;28;86955;-83
2022/06/27 14:22:32;;;;;;;2.67;1.33;;;28.90;58.50;;;;;;4891800;28;86958;-83
2022/06/27 14:24:58;;;;;;;2.47;1.10;;;28.90;57.80;;;;;;4897677;28;86879;-83
2022/06/27 14:27:24;;;;;;;2.22;0.35;;;29.00;57.20;;;;;;4905734;28;87230;-83
2022/06/27 14:29:50;;;;;;;2.08;0.57;;;28.80;57.60;;;;;;4904607;28;88718;-83
2022/06/27 14:32:16;;;;;;;1.42;0.80;;;28.50;58.60;;;;;;4904222;28;87665;-83
2022/06/27 14:34:42;;;;;;;2.30;1.83;;;28.50;58.90;;;;;;4904465;28;88234;-83
2022/06/27 14:37:07;;;;;;;2.42;1.30;;;28.30;58.60;;;;;;4904189;28;86955;-82
2022/06/27 14:39:34;;;;;;;2.97;1.08;;;28.30;58.10;;;;;;4904918;28;87630;-83
2022/06/27 14:42:01;;;;;;;2.60;0.80;;;27.90;59.20;;;;;;4903969;28;88200;-82
2022/06/27 14:44:27;;;;;;;2.25;0.98;;;27.40;60.60;;;;;;4901874;28;87225;-83
2022/06/27 14:46:54;;;;;;;1.95;0.82;;;27.90;59.20;;;;;;4904930;28;87226;-83
2022/06/27 14:49:23;;;;;;;3.60;1.25;;;28.10;58.30;;;;;;4906299;28;86782;-83
2022/06/27 14:51:49;;;;;;;;;;;27.90;58.20;;;;;;4904446;28;87427;-85
2022/06/27 14:54:16;;;;;;;4.05;1.10;;;27.40;59.10;;;;;;4906149;28;88123;-86
2022/06/27 14:56:42;;;;;;;2.63;1.25;;;26.80;63.20;;;;;;4904977;28;87030;-85
2022/06/27 14:59:08;;;;;;;4.72;1.08;;;26.70;64.10;;;;;;4904455;28;86270;-85
2022/06/27 15:01:33;;;;;;;4.68;1.55;;;26.60;64.70;;;;;;4904693;28;88933;-85
2022/06/27 15:03:59;;;;;;;3.28;1.30;;;26.30;66.90;;;;;;4899360;28;87062;-85
2022/06/27 15:06:25;;;;;;;3.72;1.02;;;26.40;66.80;;;;;;4903502;28;87998;-85
2022/06/27 15:08:50;;;;;;;4.25;1.58;;;25.80;69.10;;;;;;4904564;28;87335;-85
2022/06/27 15:14:01;;;;;;;6.25;1.30;;;26.10;67.40;;;;;;4905275;28;87128;-85
2022/06/27 15:16:27;;;;;;;5.60;0.60;;;26.20;66.70;;;;;;4904117;28;87084;-85
2022/06/27 15:18:53;;;;;;;3.20;1.02;;;25.90;67.50;;;;;;4904865;28;86175;-85
2022/06/27 15:21:18;;;;;;;1.85;1.05;;;25.50;68.00;;;;;;4903892;28;88668;-85
2022/06/27 15:23:44;;;;;;;4.05;0.80;;;25.70;68.10;;;;;;4899096;28;87400;-85
2022/06/27 15:26:10;;;;;;;3.50;0.90;;;25.40;69.10;;;;;;4902217;28;87045;-85
2022/06/27 15:28:36;;;;;;;5.55;1.33;;;25.40;69.10;;;;;;4904755;28;87088;-85
2022/06/27 15:31:01;;;;;;;2.72;1.27;;;25.50;69.30;;;;;;4903345;28;88165;-85
2022/06/27 15:33:27;;;;;;;7.90;1.15;;;25.60;68.40;;;;;;4904135;28;88227;-85
2022/06/27 15:35:53;;;;;;;1.50;0.82;;;25.20;69.60;;;;;;4904036;28;87005;-85
2022/06/27 15:38:18;;;;;;;1.17;0.70;;;25.00;70.70;;;;;;4904152;28;86996;-85
2022/06/27 15:40:44;;;;;;;5.28;1.25;;;24.90;69.80;;;;;;4904313;28;86837;-82
2022/06/27 15:43:10;;;;;;;1.55;0.90;;;24.80;71.40;;;;;;4904244;28;87469;-82
2022/06/27 15:45:35;;;;;;;1.98;0.75;;;24.60;71.40;;;;;;4904784;28;87091;-85
2022/06/27 15:48:01;;;;;;;5.05;1.30;;;24.60;72.30;;;;;;4904172;28;86155;-82